sensor_id;sensor_type;location;lat;lon;timestamp;P1;durP1;ratioP1;P2;durP2;ratioP2
76852;SDS011;65825;52.232;10.566;2023-02-05T00:01:46;6.87;;;3.27;;
76852;SDS011;65825;52.232;10.566;2023-02-05T00:04:12;7.15;;;3.28;;
76852;SDS011;65825;52.232;10.566;2023-02-05T00:06:37;5.13;;;3.17;;
76852;SDS011;65825;52.232;10.566;2023-02-05T00:09:02;6.40;;;3.03;;
76852;SDS011;65825;52.232;10.566;2023-02-05T00:11:28;8.07;;;3.00;;
76852;SDS011;65825;52.232;10.566;2023-02-05T00:13:53;9.50;;;3.60;;
76852;SDS011;65825;52.232;10.566;2023-02-05T00:16:19;8.13;;;3.80;;
76852;SDS011;65825;52.232;10.566;2023-02-05T00:18:46;5.97;;;2.80;;
76852;SDS011;65825;52.232;10.566;2023-02-05T00:21:12;6.38;;;3.33;;
76852;SDS011;65825;52.232;10.566;2023-02-05T00:23:38;5.65;;;3.13;;
76852;SDS011;65825;52.232;10.566;2023-02-05T00:26:04;6.13;;;3.15;;
76852;SDS011;65825;52.232;10.566;2023-02-05T00:28:31;4.90;;;2.70;;
76852;SDS011;65825;52.232;10.566;2023-02-05T00:33:22;7.00;;;2.90;;
76852;SDS011;65825;52.232;10.566;2023-02-05T00:35:48;7.57;;;3.03;;
76852;SDS011;65825;52.232;10.566;2023-02-05T00:38:13;7.10;;;3.08;;
76852;SDS011;65825;52.232;10.566;2023-02-05T00:40:39;6.03;;;2.90;;
76852;SDS011;65825;52.232;10.566;2023-02-05T00:43:04;5.27;;;2.83;;
76852;SDS011;65825;52.232;10.566;2023-02-05T00:45:29;5.37;;;3.17;;
76852;SDS011;65825;52.232;10.566;2023-02-05T00:47:59;7.15;;;3.13;;
76852;SDS011;65825;52.232;10.566;2023-02-05T00:52:50;6.27;;;2.83;;
76852;SDS011;65825;52.232;10.566;2023-02-05T00:55:16;8.33;;;3.53;;
76852;SDS011;65825;52.232;10.566;2023-02-05T00:57:41;7.50;;;3.10;;
76852;SDS011;65825;52.232;10.566;2023-02-05T01:00:06;4.37;;;2.93;;
76852;SDS011;65825;52.232;10.566;2023-02-05T01:02:33;5.75;;;3.13;;
76852;SDS011;65825;52.232;10.566;2023-02-05T01:04:58;7.17;;;3.03;;
76852;SDS011;65825;52.232;10.566;2023-02-05T01:07:23;6.70;;;3.40;;
76852;SDS011;65825;52.232;10.566;2023-02-05T01:09:49;5.80;;;3.15;;
76852;SDS011;65825;52.232;10.566;2023-02-05T01:12:14;5.35;;;3.03;;
76852;SDS011;65825;52.232;10.566;2023-02-05T01:14:41;8.60;;;3.30;;
76852;SDS011;65825;52.232;10.566;2023-02-05T01:19:32;4.88;;;2.70;;
76852;SDS011;65825;52.232;10.566;2023-02-05T01:24:24;5.07;;;2.67;;
76852;SDS011;65825;52.232;10.566;2023-02-05T01:26:49;7.27;;;3.93;;
76852;SDS011;65825;52.232;10.566;2023-02-05T01:29:15;6.57;;;3.83;;
76852;SDS011;65825;52.232;10.566;2023-02-05T01:31:40;7.47;;;4.10;;
76852;SDS011;65825;52.232;10.566;2023-02-05T01:34:05;8.63;;;4.07;;
76852;SDS011;65825;52.232;10.566;2023-02-05T01:36:31;6.87;;;3.83;;
76852;SDS011;65825;52.232;10.566;2023-02-05T01:38:56;6.07;;;3.37;;
76852;SDS011;65825;52.232;10.566;2023-02-05T01:41:21;6.80;;;3.83;;
76852;SDS011;65825;52.232;10.566;2023-02-05T01:46:36;7.55;;;3.70;;
76852;SDS011;65825;52.232;10.566;2023-02-05T01:49:03;7.25;;;3.70;;
76852;SDS011;65825;52.232;10.566;2023-02-05T01:51:29;7.18;;;4.05;;
76852;SDS011;65825;52.232;10.566;2023-02-05T01:53:57;6.28;;;3.90;;
76852;SDS011;65825;52.232;10.566;2023-02-05T01:56:24;7.22;;;4.55;;
76852;SDS011;65825;52.232;10.566;2023-02-05T01:58:58;6.38;;;3.78;;
76852;SDS011;65825;52.232;10.566;2023-02-05T02:01:27;6.88;;;3.83;;
76852;SDS011;65825;52.232;10.566;2023-02-05T02:03:53;7.55;;;4.03;;
76852;SDS011;65825;52.232;10.566;2023-02-05T02:06:21;9.45;;;3.60;;
76852;SDS011;65825;52.232;10.566;2023-02-05T02:08:47;7.78;;;3.65;;
76852;SDS011;65825;52.232;10.566;2023-02-05T02:11:12;5.77;;;3.30;;
76852;SDS011;65825;52.232;10.566;2023-02-05T02:13:41;6.57;;;3.42;;
76852;SDS011;65825;52.232;10.566;2023-02-05T02:16:09;7.70;;;4.00;;
76852;SDS011;65825;52.232;10.566;2023-02-05T02:18:35;7.53;;;3.67;;
76852;SDS011;65825;52.232;10.566;2023-02-05T02:28:42;6.18;;;3.88;;
76852;SDS011;65825;52.232;10.566;2023-02-05T02:31:17;6.18;;;3.78;;
76852;SDS011;65825;52.232;10.566;2023-02-05T02:33:54;9.02;;;3.83;;
76852;SDS011;65825;52.232;10.566;2023-02-05T02:39:05;7.35;;;4.20;;
76852;SDS011;65825;52.232;10.566;2023-02-05T02:41:41;6.18;;;3.63;;
76852;SDS011;65825;52.232;10.566;2023-02-05T02:44:13;7.57;;;3.80;;
76852;SDS011;65825;52.232;10.566;2023-02-05T02:46:44;9.20;;;3.95;;
76852;SDS011;65825;52.232;10.566;2023-02-05T02:49:16;5.63;;;3.55;;
76852;SDS011;65825;52.232;10.566;2023-02-05T02:51:46;6.90;;;3.85;;
76852;SDS011;65825;52.232;10.566;2023-02-05T02:54:15;7.07;;;4.05;;
76852;SDS011;65825;52.232;10.566;2023-02-05T02:56:45;8.30;;;3.90;;
76852;SDS011;65825;52.232;10.566;2023-02-05T02:59:18;6.95;;;4.10;;
76852;SDS011;65825;52.232;10.566;2023-02-05T03:01:49;7.80;;;3.90;;
76852;SDS011;65825;52.232;10.566;2023-02-05T03:04:32;6.07;;;3.33;;
76852;SDS011;65825;52.232;10.566;2023-02-05T03:07:43;6.85;;;3.58;;
76852;SDS011;65825;52.232;10.566;2023-02-05T03:10:06;7.97;;;3.75;;
76852;SDS011;65825;52.232;10.566;2023-02-05T03:12:38;7.55;;;3.75;;
76852;SDS011;65825;52.232;10.566;2023-02-05T03:15:04;6.60;;;3.63;;
76852;SDS011;65825;52.232;10.566;2023-02-05T03:17:30;5.68;;;3.42;;
76852;SDS011;65825;52.232;10.566;2023-02-05T03:19:57;7.97;;;3.70;;
76852;SDS011;65825;52.232;10.566;2023-02-05T03:22:30;6.18;;;3.67;;
76852;SDS011;65825;52.232;10.566;2023-02-05T03:24:55;6.45;;;3.17;;
76852;SDS011;65825;52.232;10.566;2023-02-05T03:27:21;8.23;;;3.73;;
76852;SDS011;65825;52.232;10.566;2023-02-05T03:29:47;7.18;;;3.60;;
76852;SDS011;65825;52.232;10.566;2023-02-05T03:38:02;4.80;;;2.80;;
76852;SDS011;65825;52.232;10.566;2023-02-05T03:43:09;6.45;;;3.40;;
76852;SDS011;65825;52.232;10.566;2023-02-05T03:51:06;5.85;;;3.40;;
76852;SDS011;65825;52.232;10.566;2023-02-05T03:56:43;8.13;;;3.42;;
76852;SDS011;65825;52.232;10.566;2023-02-05T03:59:23;6.22;;;3.35;;
76852;SDS011;65825;52.232;10.566;2023-02-05T04:01:51;7.18;;;3.30;;
76852;SDS011;65825;52.232;10.566;2023-02-05T04:04:17;6.47;;;3.22;;
76852;SDS011;65825;52.232;10.566;2023-02-05T04:06:45;6.50;;;3.22;;
76852;SDS011;65825;52.232;10.566;2023-02-05T04:09:13;6.85;;;3.40;;
76852;SDS011;65825;52.232;10.566;2023-02-05T04:11:39;7.43;;;3.75;;
76852;SDS011;65825;52.232;10.566;2023-02-05T04:14:06;7.82;;;3.40;;
76852;SDS011;65825;52.232;10.566;2023-02-05T04:16:31;6.30;;;3.35;;
76852;SDS011;65825;52.232;10.566;2023-02-05T04:18:57;6.55;;;3.40;;
76852;SDS011;65825;52.232;10.566;2023-02-05T04:21:22;6.75;;;3.28;;
76852;SDS011;65825;52.232;10.566;2023-02-05T04:23:47;6.97;;;3.40;;
76852;SDS011;65825;52.232;10.566;2023-02-05T04:26:12;5.13;;;3.07;;
76852;SDS011;65825;52.232;10.566;2023-02-05T04:28:38;5.90;;;3.22;;
76852;SDS011;65825;52.232;10.566;2023-02-05T04:31:12;7.23;;;3.60;;
76852;SDS011;65825;52.232;10.566;2023-02-05T04:33:38;7.97;;;3.60;;
76852;SDS011;65825;52.232;10.566;2023-02-05T04:36:04;6.85;;;3.90;;
76852;SDS011;65825;52.232;10.566;2023-02-05T04:38:30;5.78;;;3.13;;
76852;SDS011;65825;52.232;10.566;2023-02-05T04:40:56;3.87;;;2.43;;
76852;SDS011;65825;52.232;10.566;2023-02-05T04:43:21;6.55;;;3.58;;
76852;SDS011;65825;52.232;10.566;2023-02-05T04:45:47;6.80;;;3.30;;
76852;SDS011;65825;52.232;10.566;2023-02-05T04:48:12;6.40;;;3.20;;
76852;SDS011;65825;52.232;10.566;2023-02-05T04:50:37;8.23;;;3.83;;
76852;SDS011;65825;52.232;10.566;2023-02-05T04:53:03;6.10;;;3.35;;
76852;SDS011;65825;52.232;10.566;2023-02-05T04:55:29;6.57;;;3.58;;
76852;SDS011;65825;52.232;10.566;2023-02-05T05:00:21;5.97;;;3.17;;
76852;SDS011;65825;52.232;10.566;2023-02-05T05:02:47;6.57;;;3.45;;
76852;SDS011;65825;52.232;10.566;2023-02-05T05:05:12;7.53;;;3.17;;
76852;SDS011;65825;52.232;10.566;2023-02-05T05:07:37;9.18;;;3.13;;
76852;SDS011;65825;52.232;10.566;2023-02-05T05:10:03;6.00;;;3.53;;
76852;SDS011;65825;52.232;10.566;2023-02-05T05:12:31;7.60;;;3.65;;
76852;SDS011;65825;52.232;10.566;2023-02-05T05:14:59;6.05;;;3.03;;
76852;SDS011;65825;52.232;10.566;2023-02-05T05:17:27;6.07;;;3.38;;
76852;SDS011;65825;52.232;10.566;2023-02-05T05:19:53;9.38;;;3.63;;
76852;SDS011;65825;52.232;10.566;2023-02-05T05:22:18;7.03;;;3.95;;
76852;SDS011;65825;52.232;10.566;2023-02-05T05:24:43;7.13;;;3.37;;
76852;SDS011;65825;52.232;10.566;2023-02-05T05:27:09;7.10;;;3.47;;
76852;SDS011;65825;52.232;10.566;2023-02-05T05:29:34;4.95;;;2.97;;
76852;SDS011;65825;52.232;10.566;2023-02-05T05:32:00;6.40;;;3.65;;
76852;SDS011;65825;52.232;10.566;2023-02-05T05:34:25;6.68;;;3.00;;
76852;SDS011;65825;52.232;10.566;2023-02-05T05:36:51;7.50;;;3.38;;
76852;SDS011;65825;52.232;10.566;2023-02-05T05:39:17;8.55;;;3.50;;
76852;SDS011;65825;52.232;10.566;2023-02-05T05:42:01;6.57;;;3.58;;
76852;SDS011;65825;52.232;10.566;2023-02-05T05:44:46;8.93;;;3.58;;
76852;SDS011;65825;52.232;10.566;2023-02-05T05:47:16;6.03;;;3.60;;
76852;SDS011;65825;52.232;10.566;2023-02-05T05:49:42;5.30;;;3.53;;
76852;SDS011;65825;52.232;10.566;2023-02-05T05:52:07;7.93;;;3.83;;
76852;SDS011;65825;52.232;10.566;2023-02-05T05:54:32;6.63;;;3.00;;
76852;SDS011;65825;52.232;10.566;2023-02-05T05:56:57;6.20;;;3.10;;
76852;SDS011;65825;52.232;10.566;2023-02-05T05:59:22;6.07;;;3.03;;
76852;SDS011;65825;52.232;10.566;2023-02-05T06:01:50;6.57;;;3.03;;
76852;SDS011;65825;52.232;10.566;2023-02-05T06:04:15;5.77;;;3.13;;
76852;SDS011;65825;52.232;10.566;2023-02-05T06:06:41;6.28;;;3.38;;
76852;SDS011;65825;52.232;10.566;2023-02-05T06:09:06;5.95;;;2.92;;
76852;SDS011;65825;52.232;10.566;2023-02-05T06:11:31;5.07;;;3.00;;
76852;SDS011;65825;52.232;10.566;2023-02-05T06:13:57;6.00;;;3.40;;
76852;SDS011;65825;52.232;10.566;2023-02-05T06:16:22;6.40;;;3.47;;
76852;SDS011;65825;52.232;10.566;2023-02-05T06:18:47;6.17;;;3.37;;
76852;SDS011;65825;52.232;10.566;2023-02-05T06:21:12;9.20;;;3.10;;
76852;SDS011;65825;52.232;10.566;2023-02-05T06:23:38;7.28;;;2.95;;
76852;SDS011;65825;52.232;10.566;2023-02-05T06:26:03;6.40;;;3.00;;
76852;SDS011;65825;52.232;10.566;2023-02-05T06:28:28;6.35;;;3.08;;
76852;SDS011;65825;52.232;10.566;2023-02-05T06:30:54;5.57;;;2.80;;
76852;SDS011;65825;52.232;10.566;2023-02-05T06:33:19;5.07;;;2.93;;
76852;SDS011;65825;52.232;10.566;2023-02-05T06:35:45;5.23;;;3.03;;
76852;SDS011;65825;52.232;10.566;2023-02-05T06:38:10;5.53;;;3.00;;
76852;SDS011;65825;52.232;10.566;2023-02-05T06:40:35;6.80;;;3.10;;
76852;SDS011;65825;52.232;10.566;2023-02-05T06:43:01;4.63;;;3.07;;
76852;SDS011;65825;52.232;10.566;2023-02-05T06:45:26;7.45;;;3.30;;
76852;SDS011;65825;52.232;10.566;2023-02-05T06:47:52;7.72;;;3.70;;
76852;SDS011;65825;52.232;10.566;2023-02-05T06:50:19;5.88;;;3.15;;
76852;SDS011;65825;52.232;10.566;2023-02-05T06:52:45;5.32;;;2.83;;
76852;SDS011;65825;52.232;10.566;2023-02-05T06:55:11;5.63;;;2.83;;
76852;SDS011;65825;52.232;10.566;2023-02-05T06:57:36;4.57;;;2.93;;
76852;SDS011;65825;52.232;10.566;2023-02-05T07:00:02;6.10;;;3.40;;
76852;SDS011;65825;52.232;10.566;2023-02-05T07:02:29;5.75;;;3.17;;
76852;SDS011;65825;52.232;10.566;2023-02-05T07:04:54;6.15;;;3.10;;
76852;SDS011;65825;52.232;10.566;2023-02-05T07:07:20;7.75;;;3.53;;
76852;SDS011;65825;52.232;10.566;2023-02-05T07:09:45;8.95;;;4.10;;
76852;SDS011;65825;52.232;10.566;2023-02-05T07:12:10;4.97;;;2.88;;
76852;SDS011;65825;52.232;10.566;2023-02-05T07:14:39;6.93;;;3.63;;
76852;SDS011;65825;52.232;10.566;2023-02-05T07:17:05;5.88;;;3.45;;
76852;SDS011;65825;52.232;10.566;2023-02-05T07:19:31;7.65;;;3.60;;
76852;SDS011;65825;52.232;10.566;2023-02-05T07:21:57;5.90;;;3.45;;
76852;SDS011;65825;52.232;10.566;2023-02-05T07:24:22;5.75;;;3.45;;
76852;SDS011;65825;52.232;10.566;2023-02-05T07:26:48;7.60;;;3.53;;
76852;SDS011;65825;52.232;10.566;2023-02-05T07:29:13;5.97;;;3.20;;
76852;SDS011;65825;52.232;10.566;2023-02-05T07:31:38;5.63;;;3.40;;
76852;SDS011;65825;52.232;10.566;2023-02-05T07:34:03;5.57;;;3.57;;
76852;SDS011;65825;52.232;10.566;2023-02-05T07:36:29;6.90;;;3.50;;
76852;SDS011;65825;52.232;10.566;2023-02-05T07:38:54;5.70;;;3.47;;
76852;SDS011;65825;52.232;10.566;2023-02-05T07:41:19;6.37;;;3.87;;
76852;SDS011;65825;52.232;10.566;2023-02-05T07:43:44;7.30;;;3.63;;
76852;SDS011;65825;52.232;10.566;2023-02-05T07:46:11;6.70;;;4.00;;
76852;SDS011;65825;52.232;10.566;2023-02-05T07:48:38;8.35;;;4.28;;
76852;SDS011;65825;52.232;10.566;2023-02-05T07:51:03;8.40;;;4.20;;
76852;SDS011;65825;52.232;10.566;2023-02-05T07:53:29;9.68;;;5.43;;
76852;SDS011;65825;52.232;10.566;2023-02-05T07:55:54;7.07;;;3.97;;
76852;SDS011;65825;52.232;10.566;2023-02-05T07:58:20;6.75;;;4.13;;
76852;SDS011;65825;52.232;10.566;2023-02-05T08:00:45;7.93;;;4.50;;
76852;SDS011;65825;52.232;10.566;2023-02-05T08:03:11;10.20;;;4.90;;
76852;SDS011;65825;52.232;10.566;2023-02-05T08:05:36;7.75;;;4.57;;
76852;SDS011;65825;52.232;10.566;2023-02-05T08:08:03;6.97;;;4.10;;
76852;SDS011;65825;52.232;10.566;2023-02-05T08:10:28;7.63;;;4.55;;
76852;SDS011;65825;52.232;10.566;2023-02-05T08:12:54;8.02;;;4.57;;
76852;SDS011;65825;52.232;10.566;2023-02-05T08:15:19;8.20;;;4.60;;
76852;SDS011;65825;52.232;10.566;2023-02-05T08:17:45;7.13;;;4.22;;
76852;SDS011;65825;52.232;10.566;2023-02-05T08:20:10;8.50;;;4.32;;
76852;SDS011;65825;52.232;10.566;2023-02-05T08:22:36;8.32;;;5.03;;
76852;SDS011;65825;52.232;10.566;2023-02-05T08:25:04;7.93;;;4.47;;
76852;SDS011;65825;52.232;10.566;2023-02-05T08:27:31;7.70;;;4.32;;
76852;SDS011;65825;52.232;10.566;2023-02-05T08:29:57;7.20;;;4.30;;
76852;SDS011;65825;52.232;10.566;2023-02-05T08:32:23;7.75;;;4.35;;
76852;SDS011;65825;52.232;10.566;2023-02-05T08:34:51;9.02;;;4.68;;
76852;SDS011;65825;52.232;10.566;2023-02-05T08:37:17;10.27;;;4.72;;
76852;SDS011;65825;52.232;10.566;2023-02-05T08:39:42;8.97;;;4.60;;
76852;SDS011;65825;52.232;10.566;2023-02-05T08:42:07;9.23;;;4.93;;
76852;SDS011;65825;52.232;10.566;2023-02-05T08:44:32;8.10;;;4.63;;
76852;SDS011;65825;52.232;10.566;2023-02-05T08:46:58;8.87;;;4.70;;
76852;SDS011;65825;52.232;10.566;2023-02-05T08:49:23;11.88;;;5.05;;
76852;SDS011;65825;52.232;10.566;2023-02-05T08:51:49;10.02;;;5.05;;
76852;SDS011;65825;52.232;10.566;2023-02-05T08:54:14;10.20;;;5.40;;
76852;SDS011;65825;52.232;10.566;2023-02-05T08:56:40;11.37;;;5.50;;
76852;SDS011;65825;52.232;10.566;2023-02-05T08:59:06;12.38;;;5.05;;
76852;SDS011;65825;52.232;10.566;2023-02-05T09:01:32;9.63;;;4.43;;
76852;SDS011;65825;52.232;10.566;2023-02-05T09:04:00;8.25;;;4.95;;
76852;SDS011;65825;52.232;10.566;2023-02-05T09:06:25;10.98;;;5.05;;
76852;SDS011;65825;52.232;10.566;2023-02-05T09:08:50;7.43;;;4.20;;
76852;SDS011;65825;52.232;10.566;2023-02-05T09:11:19;9.00;;;4.90;;
76852;SDS011;65825;52.232;10.566;2023-02-05T09:13:47;8.02;;;4.82;;
76852;SDS011;65825;52.232;10.566;2023-02-05T09:16:13;9.55;;;5.22;;
76852;SDS011;65825;52.232;10.566;2023-02-05T09:18:38;9.07;;;5.17;;
76852;SDS011;65825;52.232;10.566;2023-02-05T09:21:07;8.98;;;4.45;;
76852;SDS011;65825;52.232;10.566;2023-02-05T09:23:33;8.65;;;4.53;;
76852;SDS011;65825;52.232;10.566;2023-02-05T09:25:58;8.52;;;4.63;;
76852;SDS011;65825;52.232;10.566;2023-02-05T09:28:24;10.23;;;4.68;;
76852;SDS011;65825;52.232;10.566;2023-02-05T09:30:49;8.80;;;4.35;;
76852;SDS011;65825;52.232;10.566;2023-02-05T09:33:15;6.97;;;4.90;;
76852;SDS011;65825;52.232;10.566;2023-02-05T09:35:40;7.95;;;4.68;;
76852;SDS011;65825;52.232;10.566;2023-02-05T09:38:06;9.40;;;4.30;;
76852;SDS011;65825;52.232;10.566;2023-02-05T09:40:33;7.05;;;4.60;;
76852;SDS011;65825;52.232;10.566;2023-02-05T09:45:57;6.90;;;4.45;;
76852;SDS011;65825;52.232;10.566;2023-02-05T09:51:01;9.98;;;4.95;;
76852;SDS011;65825;52.232;10.566;2023-02-05T09:53:27;10.50;;;4.60;;
76852;SDS011;65825;52.232;10.566;2023-02-05T09:55:59;7.78;;;4.60;;
76852;SDS011;65825;52.232;10.566;2023-02-05T10:01:03;10.00;;;4.75;;
76852;SDS011;65825;52.232;10.566;2023-02-05T10:03:53;9.30;;;4.70;;
76852;SDS011;65825;52.232;10.566;2023-02-05T10:06:39;8.55;;;4.88;;
76852;SDS011;65825;52.232;10.566;2023-02-05T10:09:33;10.65;;;4.88;;
76852;SDS011;65825;52.232;10.566;2023-02-05T10:17:47;10.88;;;4.88;;
76852;SDS011;65825;52.232;10.566;2023-02-05T10:25:54;10.45;;;4.57;;
76852;SDS011;65825;52.232;10.566;2023-02-05T10:31:22;7.68;;;4.53;;
76852;SDS011;65825;52.232;10.566;2023-02-05T10:34:06;9.20;;;5.05;;
76852;SDS011;65825;52.232;10.566;2023-02-05T10:36:55;8.27;;;4.93;;
76852;SDS011;65825;52.232;10.566;2023-02-05T10:39:23;9.70;;;5.07;;
76852;SDS011;65825;52.232;10.566;2023-02-05T10:44:39;8.13;;;5.03;;
76852;SDS011;65825;52.232;10.566;2023-02-05T10:47:16;11.07;;;5.40;;
76852;SDS011;65825;52.232;10.566;2023-02-05T10:49:55;8.02;;;4.80;;
76852;SDS011;65825;52.232;10.566;2023-02-05T10:54:52;8.52;;;4.82;;
76852;SDS011;65825;52.232;10.566;2023-02-05T10:57:18;11.40;;;5.07;;
76852;SDS011;65825;52.232;10.566;2023-02-05T10:59:50;10.15;;;5.22;;
76852;SDS011;65825;52.232;10.566;2023-02-05T11:02:18;10.00;;;5.40;;
76852;SDS011;65825;52.232;10.566;2023-02-05T11:04:49;9.93;;;5.32;;
76852;SDS011;65825;52.232;10.566;2023-02-05T11:07:38;8.25;;;5.20;;
76852;SDS011;65825;52.232;10.566;2023-02-05T11:10:18;10.20;;;5.25;;
76852;SDS011;65825;52.232;10.566;2023-02-05T11:12:47;9.15;;;5.22;;
76852;SDS011;65825;52.232;10.566;2023-02-05T11:15:24;10.43;;;5.57;;
76852;SDS011;65825;52.232;10.566;2023-02-05T11:17:55;9.10;;;5.00;;
76852;SDS011;65825;52.232;10.566;2023-02-05T11:20:25;8.48;;;4.95;;
76852;SDS011;65825;52.232;10.566;2023-02-05T11:23:04;8.57;;;5.10;;
76852;SDS011;65825;52.232;10.566;2023-02-05T11:25:47;8.57;;;4.70;;
76852;SDS011;65825;52.232;10.566;2023-02-05T11:28:32;9.10;;;5.25;;
76852;SDS011;65825;52.232;10.566;2023-02-05T11:32:01;8.70;;;5.50;;
76852;SDS011;65825;52.232;10.566;2023-02-05T11:36:31;9.18;;;5.18;;
76852;SDS011;65825;52.232;10.566;2023-02-05T11:38:56;11.90;;;4.67;;
76852;SDS011;65825;52.232;10.566;2023-02-05T11:41:31;8.65;;;5.18;;
76852;SDS011;65825;52.232;10.566;2023-02-05T11:44:26;9.35;;;5.03;;
76852;SDS011;65825;52.232;10.566;2023-02-05T11:46:54;8.68;;;5.18;;
76852;SDS011;65825;52.232;10.566;2023-02-05T11:52:06;9.25;;;4.82;;
76852;SDS011;65825;52.232;10.566;2023-02-05T12:02:33;7.75;;;4.50;;
76852;SDS011;65825;52.232;10.566;2023-02-05T12:05:17;8.63;;;4.80;;
76852;SDS011;65825;52.232;10.566;2023-02-05T12:07:46;9.70;;;4.65;;
76852;SDS011;65825;52.232;10.566;2023-02-05T12:10:18;9.10;;;4.82;;
76852;SDS011;65825;52.232;10.566;2023-02-05T12:12:55;12.07;;;5.18;;
76852;SDS011;65825;52.232;10.566;2023-02-05T12:24:21;9.00;;;5.10;;
76852;SDS011;65825;52.232;10.566;2023-02-05T12:27:11;10.40;;;4.95;;
76852;SDS011;65825;52.232;10.566;2023-02-05T12:30:03;10.23;;;5.00;;
76852;SDS011;65825;52.232;10.566;2023-02-05T12:33:07;10.15;;;4.95;;
76852;SDS011;65825;52.232;10.566;2023-02-05T12:38:48;8.48;;;4.55;;
76852;SDS011;65825;52.232;10.566;2023-02-05T12:41:22;8.93;;;4.70;;
76852;SDS011;65825;52.232;10.566;2023-02-05T12:44:29;8.25;;;4.97;;
76852;SDS011;65825;52.232;10.566;2023-02-05T12:47:39;7.70;;;4.55;;
76852;SDS011;65825;52.232;10.566;2023-02-05T12:50:36;7.28;;;4.85;;
76852;SDS011;65825;52.232;10.566;2023-02-05T12:58:42;11.40;;;5.38;;
76852;SDS011;65825;52.232;10.566;2023-02-05T13:01:13;10.30;;;5.18;;
76852;SDS011;65825;52.232;10.566;2023-02-05T13:03:44;10.73;;;4.93;;
76852;SDS011;65825;52.232;10.566;2023-02-05T13:06:21;10.20;;;4.80;;
76852;SDS011;65825;52.232;10.566;2023-02-05T13:11:55;7.65;;;4.05;;
76852;SDS011;65825;52.232;10.566;2023-02-05T13:14:25;8.95;;;4.68;;
76852;SDS011;65825;52.232;10.566;2023-02-05T13:17:00;7.80;;;4.60;;
76852;SDS011;65825;52.232;10.566;2023-02-05T13:19:42;9.77;;;4.80;;
76852;SDS011;65825;52.232;10.566;2023-02-05T13:22:12;8.88;;;5.15;;
76852;SDS011;65825;52.232;10.566;2023-02-05T13:25:02;7.90;;;4.75;;
76852;SDS011;65825;52.232;10.566;2023-02-05T13:27:57;7.82;;;4.78;;
76852;SDS011;65825;52.232;10.566;2023-02-05T13:30:47;8.32;;;5.05;;
76852;SDS011;65825;52.232;10.566;2023-02-05T13:33:16;11.25;;;5.65;;
76852;SDS011;65825;52.232;10.566;2023-02-05T14:00:23;11.00;;;5.53;;
76852;SDS011;65825;52.232;10.566;2023-02-05T14:02:52;11.75;;;5.55;;
76852;SDS011;65825;52.232;10.566;2023-02-05T14:05:28;10.60;;;6.13;;
76852;SDS011;65825;52.232;10.566;2023-02-05T14:07:56;9.45;;;5.50;;
76852;SDS011;65825;52.232;10.566;2023-02-05T14:10:39;8.60;;;5.32;;
76852;SDS011;65825;52.232;10.566;2023-02-05T14:13:15;9.93;;;5.40;;
76852;SDS011;65825;52.232;10.566;2023-02-05T14:15:46;15.98;;;6.53;;
76852;SDS011;65825;52.232;10.566;2023-02-05T14:19:01;9.57;;;5.68;;
76852;SDS011;65825;52.232;10.566;2023-02-05T14:23:55;8.77;;;5.22;;
76852;SDS011;65825;52.232;10.566;2023-02-05T14:26:42;7.65;;;4.60;;
76852;SDS011;65825;52.232;10.566;2023-02-05T14:29:36;8.88;;;4.60;;
76852;SDS011;65825;52.232;10.566;2023-02-05T14:38:00;7.65;;;4.28;;
76852;SDS011;65825;52.232;10.566;2023-02-05T14:40:31;14.68;;;5.25;;
76852;SDS011;65825;52.232;10.566;2023-02-05T14:43:14;9.13;;;5.30;;
76852;SDS011;65825;52.232;10.566;2023-02-05T14:45:53;8.70;;;5.35;;
76852;SDS011;65825;52.232;10.566;2023-02-05T14:48:19;12.13;;;5.67;;
76852;SDS011;65825;52.232;10.566;2023-02-05T14:51:12;9.38;;;4.85;;
76852;SDS011;65825;52.232;10.566;2023-02-05T14:54:31;18.67;;;8.63;;
76852;SDS011;65825;52.232;10.566;2023-02-05T14:56:52;8.45;;;5.15;;
76852;SDS011;65825;52.232;10.566;2023-02-05T14:59:40;11.93;;;4.70;;
76852;SDS011;65825;52.232;10.566;2023-02-05T15:05:32;8.95;;;5.05;;
76852;SDS011;65825;52.232;10.566;2023-02-05T15:08:07;9.27;;;5.30;;
76852;SDS011;65825;52.232;10.566;2023-02-05T15:10:51;10.38;;;5.68;;
76852;SDS011;65825;52.232;10.566;2023-02-05T15:13:22;8.20;;;5.18;;
76852;SDS011;65825;52.232;10.566;2023-02-05T15:29:29;12.88;;;5.13;;
76852;SDS011;65825;52.232;10.566;2023-02-05T15:32:00;8.90;;;5.38;;
76852;SDS011;65825;52.232;10.566;2023-02-05T15:34:36;12.13;;;5.50;;
76852;SDS011;65825;52.232;10.566;2023-02-05T15:39:43;9.38;;;5.30;;
76852;SDS011;65825;52.232;10.566;2023-02-05T15:42:09;8.88;;;5.18;;
76852;SDS011;65825;52.232;10.566;2023-02-05T15:44:43;12.88;;;5.10;;
76852;SDS011;65825;52.232;10.566;2023-02-05T15:47:14;9.80;;;5.27;;
76852;SDS011;65825;52.232;10.566;2023-02-05T15:49:43;11.45;;;5.57;;
76852;SDS011;65825;52.232;10.566;2023-02-05T15:52:17;10.38;;;5.25;;
76852;SDS011;65825;52.232;10.566;2023-02-05T15:54:45;8.90;;;5.47;;
76852;SDS011;65825;52.232;10.566;2023-02-05T15:57:14;10.18;;;4.97;;
76852;SDS011;65825;52.232;10.566;2023-02-05T15:59:44;10.88;;;5.85;;
76852;SDS011;65825;52.232;10.566;2023-02-05T16:02:14;9.88;;;5.68;;
76852;SDS011;65825;52.232;10.566;2023-02-05T16:04:42;10.18;;;5.53;;
76852;SDS011;65825;52.232;10.566;2023-02-05T16:07:21;13.73;;;6.40;;
76852;SDS011;65825;52.232;10.566;2023-02-05T16:09:57;9.95;;;5.45;;
76852;SDS011;65825;52.232;10.566;2023-02-05T16:12:24;11.02;;;5.90;;
76852;SDS011;65825;52.232;10.566;2023-02-05T16:14:57;10.85;;;5.82;;
76852;SDS011;65825;52.232;10.566;2023-02-05T16:17:33;10.40;;;5.68;;
76852;SDS011;65825;52.232;10.566;2023-02-05T16:20:15;12.43;;;6.00;;
76852;SDS011;65825;52.232;10.566;2023-02-05T16:22:46;11.63;;;6.53;;
76852;SDS011;65825;52.232;10.566;2023-02-05T16:25:22;13.68;;;6.95;;
76852;SDS011;65825;52.232;10.566;2023-02-05T16:27:56;13.07;;;6.78;;
76852;SDS011;65825;52.232;10.566;2023-02-05T16:30:39;11.63;;;6.53;;
76852;SDS011;65825;52.232;10.566;2023-02-05T16:33:06;12.63;;;7.03;;
76852;SDS011;65825;52.232;10.566;2023-02-05T16:35:45;12.73;;;7.05;;
76852;SDS011;65825;52.232;10.566;2023-02-05T16:38:16;15.15;;;7.18;;
76852;SDS011;65825;52.232;10.566;2023-02-05T16:40:44;14.63;;;7.07;;
76852;SDS011;65825;52.232;10.566;2023-02-05T16:43:17;12.95;;;7.00;;
76852;SDS011;65825;52.232;10.566;2023-02-05T16:48:33;25.67;;;13.27;;
76852;SDS011;65825;52.232;10.566;2023-02-05T16:51:01;24.17;;;13.23;;
76852;SDS011;65825;52.232;10.566;2023-02-05T16:53:31;17.98;;;9.25;;
76852;SDS011;65825;52.232;10.566;2023-02-05T16:58:59;16.80;;;7.88;;
76852;SDS011;65825;52.232;10.566;2023-02-05T17:01:28;15.05;;;7.45;;
76852;SDS011;65825;52.232;10.566;2023-02-05T17:04:00;17.77;;;9.68;;
76852;SDS011;65825;52.232;10.566;2023-02-05T17:06:26;20.17;;;12.20;;
76852;SDS011;65825;52.232;10.566;2023-02-05T17:08:57;23.20;;;12.40;;
76852;SDS011;65825;52.232;10.566;2023-02-05T17:11:36;18.70;;;10.20;;
76852;SDS011;65825;52.232;10.566;2023-02-05T17:17:32;14.85;;;8.05;;
76852;SDS011;65825;52.232;10.566;2023-02-05T17:19:42;14.63;;;7.20;;
76852;SDS011;65825;52.232;10.566;2023-02-05T17:22:25;13.38;;;7.20;;
76852;SDS011;65825;52.232;10.566;2023-02-05T17:24:51;14.73;;;6.93;;
76852;SDS011;65825;52.232;10.566;2023-02-05T17:27:27;11.63;;;6.72;;
76852;SDS011;65825;52.232;10.566;2023-02-05T17:29:54;14.88;;;7.35;;
76852;SDS011;65825;52.232;10.566;2023-02-05T17:32:21;14.00;;;8.13;;
76852;SDS011;65825;52.232;10.566;2023-02-05T17:34:47;13.95;;;7.18;;